Time;durP1;ratioP1;P1;durP2;ratioP2;P2;SDS_P1;SDS_P2;PMS_P1;PMS_P2;Temp;Humidity;BMP_temperature;BMP_pressure;BME280_temperature;BME280_humidity;BME280_pressure;Samples;Min_cycle;Max_cycle;Signal;HPM_P1;HPM_P2
2020/12/12 00:00:40;;;;;;;;;;;8.20;99.90;;;;;;4959026;28;19942;-89
2020/12/12 00:03:06;;;;;;;;;;;8.20;99.90;;;;;;4959812;29;20283;-89
2020/12/12 00:05:33;;;;;;;;;;;8.20;99.90;;;;;;4959620;29;19926;-89
2020/12/12 00:07:59;;;;;;;;;;;8.20;99.90;;;;;;4959547;29;19937;-89
2020/12/12 00:10:26;;;;;;;;;;;8.30;99.90;;;;;;4959582;29;20287;-89
2020/12/12 00:12:52;;;;;;;;;;;8.30;99.90;;;;;;4959548;29;19926;-88
2020/12/12 00:15:19;;;;;;;;;;;8.20;99.90;;;;;;4959305;29;19933;-88
2020/12/12 00:17:46;;;;;;;;;;;8.20;99.90;;;;;;4959557;29;19926;-89
2020/12/12 00:20:12;;;;;;;;;;;8.30;99.90;;;;;;4959264;29;20406;-91
2020/12/12 00:22:39;;;;;;;;;;;8.20;99.90;;;;;;4959205;29;19926;-90
2020/12/12 00:25:07;;;;;;;;;;;8.20;99.90;;;;;;4959324;29;19938;-89
2020/12/12 00:27:34;;;;;;;;;;;8.30;99.90;;;;;;4959605;29;19938;-90
2020/12/12 00:30:00;;;;;;;;;;;8.20;99.90;;;;;;4959057;29;19926;-90
2020/12/12 00:32:27;;;;;;;;;;;8.20;99.90;;;;;;4959262;29;19926;-90
2020/12/12 00:34:54;;;;;;;;;;;8.20;99.90;;;;;;4959672;29;19926;-90
2020/12/12 00:37:20;;;;;;;;;;;8.20;99.90;;;;;;4959236;29;19946;-90
2020/12/12 00:39:47;;;;;;;;;;;8.20;99.90;;;;;;4959034;29;20351;-91
2020/12/12 00:42:13;;;;;;;;;;;8.20;99.90;;;;;;4958951;29;19937;-90
2020/12/12 00:44:39;;;;;;;;;;;8.20;99.90;;;;;;4959186;29;19926;-90
2020/12/12 00:47:06;;;;;;;;;;;8.20;99.90;;;;;;4958932;29;19937;-90
2020/12/12 00:49:33;;;;;;;;;;;8.20;99.90;;;;;;4959171;29;19926;-91
2020/12/12 00:51:59;;;;;;;;;;;8.20;99.90;;;;;;4958951;29;19937;-91
2020/12/12 00:54:26;;;;;;;;;;;8.20;99.90;;;;;;4958877;29;19926;-91
2020/12/12 00:56:52;;;;;;;;;;;8.20;99.90;;;;;;4959221;29;20347;-90
2020/12/12 00:59:19;;;;;;;;;;;8.20;99.90;;;;;;4958698;29;19938;-90
2020/12/12 01:01:48;;;;;;;;;;;8.20;99.90;;;;;;4958806;29;19926;-90
2020/12/12 01:04:14;;;;;;;;;;;8.20;99.90;;;;;;4958586;29;19985;-90
2020/12/12 01:06:41;;;;;;;;;;;8.20;99.90;;;;;;4958526;29;19930;-90
2020/12/12 01:09:08;;;;;;;;;;;8.20;99.90;;;;;;4958526;29;19937;-90
2020/12/12 01:11:34;;;;;;;;;;;8.20;99.90;;;;;;4957683;28;20263;-90
2020/12/12 01:14:00;;;;;;;;;;;8.20;99.90;;;;;;4958957;29;19926;-91
2020/12/12 01:16:27;;;;;;;;;;;8.20;99.90;;;;;;4958348;29;19933;-91
2020/12/12 01:18:53;;;;;;;;;;;8.20;99.90;;;;;;4958377;29;19927;-89
2020/12/12 01:21:19;;;;;;;;;;;8.20;99.90;;;;;;4958328;29;19934;-90
2020/12/12 01:23:46;;;;;;;;;;;8.20;99.90;;;;;;4958626;29;19926;-91
2020/12/12 01:26:13;;;;;;;;;;;8.20;99.90;;;;;;4958250;29;19926;-90
2020/12/12 01:28:39;;;;;;;;;;;8.20;99.90;;;;;;4958160;29;20348;-90
2020/12/12 01:31:05;;;;;;;;;;;8.20;99.90;;;;;;4957945;29;19934;-90
2020/12/12 01:33:32;;;;;;;;;;;8.20;99.90;;;;;;4957856;29;19937;-91
2020/12/12 01:35:58;;;;;;;;;;;8.20;99.90;;;;;;4958347;29;19926;-92
2020/12/12 01:38:24;;;;;;;;;;;8.20;99.90;;;;;;4958053;29;19926;-90
2020/12/12 01:40:55;;;;;;;;;;;8.20;99.90;;;;;;4958308;29;19937;-91
2020/12/12 01:43:21;;;;;;;;;;;8.20;99.90;;;;;;4958099;29;19930;-90
2020/12/12 01:45:47;;;;;;;;;;;8.20;99.90;;;;;;4958061;29;19933;-89
2020/12/12 01:48:14;;;;;;;;;;;8.20;99.90;;;;;;4958012;29;19938;-90
2020/12/12 01:50:40;;;;;;;;;;;8.20;99.90;;;;;;4958074;29;19927;-91
2020/12/12 01:53:06;;;;;;;;;;;8.20;99.90;;;;;;4957844;29;19926;-90
2020/12/12 01:55:33;;;;;;;;;;;8.20;99.90;;;;;;4958074;29;19927;-90
2020/12/12 01:58:00;;;;;;;;;;;8.20;99.90;;;;;;4957922;29;19941;-90
2020/12/12 02:00:26;;;;;;;;;;;8.20;99.90;;;;;;4957843;29;19926;-90
2020/12/12 02:02:53;;;;;;;;;;;8.20;99.90;;;;;;4958248;29;19938;-90
2020/12/12 02:08:02;;;;;;;;;;;8.20;99.90;;;;;;4957219;29;19966;-91
2020/12/12 02:10:29;;;;;;;;;;;8.20;99.90;;;;;;4957788;29;20264;-92
2020/12/12 02:12:55;;;;;;;;;;;8.30;99.90;;;;;;4957188;29;19926;-91
2020/12/12 02:15:22;;;;;;;;;;;8.20;99.90;;;;;;4957166;29;19938;-92
2020/12/12 02:17:48;;;;;;;;;;;8.20;99.90;;;;;;4957531;29;19933;-91
2020/12/12 02:20:15;;;;;;;;;;;8.20;99.90;;;;;;4957446;29;20360;-90
2020/12/12 02:22:50;;;;;;;;;;;8.30;99.90;;;;;;4957376;28;20352;-95
2020/12/12 02:25:16;;;;;;;;;;;8.20;99.90;;;;;;4957653;29;19969;-90
2020/12/12 02:27:42;;;;;;;;;;;8.20;99.90;;;;;;4957568;29;19937;-92
2020/12/12 02:30:09;;;;;;;;;;;8.20;99.90;;;;;;4957666;29;19927;-92
2020/12/12 02:32:35;;;;;;;;;;;8.20;99.90;;;;;;4957588;29;19926;-90
2020/12/12 02:35:01;;;;;;;;;;;8.20;99.90;;;;;;4957288;29;19941;-90
2020/12/12 02:37:28;;;;;;;;;;;8.20;99.90;;;;;;4957299;29;19926;-91
2020/12/12 02:39:55;;;;;;;;;;;8.20;99.90;;;;;;4957298;29;19926;-91
2020/12/12 02:42:21;;;;;;;;;;;8.20;99.90;;;;;;4957160;29;19937;-90
2020/12/12 02:44:50;;;;;;;;;;;8.20;99.90;;;;;;4957099;29;19927;-91
2020/12/12 02:47:17;;;;;;;;;;;8.20;99.90;;;;;;4957307;29;20366;-91
2020/12/12 02:49:43;;;;;;;;;;;8.20;99.90;;;;;;4957349;29;19938;-91
2020/12/12 02:52:09;;;;;;;;;;;8.20;99.90;;;;;;4956415;29;20437;-91
2020/12/12 02:54:36;;;;;;;;;;;8.20;99.90;;;;;;4957239;29;19934;-91
2020/12/12 02:57:04;;;;;;;;;;;8.20;99.90;;;;;;4957348;29;19937;-91
2020/12/12 02:59:30;;;;;;;;;;;8.20;99.90;;;;;;4957213;29;19926;-93
2020/12/12 03:01:56;;;;;;;;;;;8.20;99.90;;;;;;4957333;29;19950;-91
2020/12/12 03:04:23;;;;;;;;;;;8.20;99.90;;;;;;4957284;29;20263;-91
2020/12/12 03:06:49;;;;;;;;;;;8.30;99.90;;;;;;4957216;29;19926;-90
2020/12/12 03:09:15;;;;;;;;;;;8.20;99.90;;;;;;4956965;29;19930;-91
2020/12/12 03:11:42;;;;;;;;;;;8.30;99.90;;;;;;4957165;29;19926;-93
2020/12/12 03:14:09;;;;;;;;;;;8.20;99.90;;;;;;4957041;29;20398;-92
2020/12/12 03:16:35;;;;;;;;;;;8.20;99.90;;;;;;4956941;29;20378;-92
2020/12/12 03:19:01;;;;;;;;;;;8.20;99.90;;;;;;4957406;29;19934;-91
2020/12/12 03:21:28;;;;;;;;;;;8.20;99.90;;;;;;4957001;29;19937;-92
2020/12/12 03:23:54;;;;;;;;;;;8.20;99.90;;;;;;4957042;29;19926;-93
2020/12/12 03:26:20;;;;;;;;;;;8.20;99.90;;;;;;4957059;29;19927;-92
2020/12/12 03:28:47;;;;;;;;;;;8.20;99.90;;;;;;4956615;29;19931;-92
2020/12/12 03:31:14;;;;;;;;;;;8.20;99.90;;;;;;4956476;29;20363;-92
2020/12/12 03:33:40;;;;;;;;;;;8.20;99.90;;;;;;4956646;28;19938;-91
2020/12/12 03:36:07;;;;;;;;;;;8.20;99.90;;;;;;4960260;29;19926;-92
2020/12/12 03:38:33;;;;;;;;;;;8.20;99.90;;;;;;4960548;29;19937;-93
2020/12/12 03:40:59;;;;;;;;;;;8.30;99.90;;;;;;4960510;29;19926;-92
2020/12/12 03:43:26;;;;;;;;;;;8.20;99.90;;;;;;4960374;29;19927;-92
2020/12/12 03:45:52;;;;;;;;;;;8.20;99.90;;;;;;4960411;29;19927;-92
2020/12/12 03:48:20;;;;;;;;;;;8.20;99.90;;;;;;4960552;29;20336;-92
2020/12/12 03:50:46;;;;;;;;;;;8.20;99.90;;;;;;4960337;29;20351;-92
2020/12/12 03:53:13;;;;;;;;;;;8.20;99.90;;;;;;4960353;29;20269;-92
2020/12/12 03:55:39;;;;;;;;;;;8.30;99.90;;;;;;4960371;29;19937;-91
2020/12/12 03:58:05;;;;;;;;;;;8.20;99.90;;;;;;4959776;29;19937;-92
2020/12/12 04:00:32;;;;;;;;;;;8.30;99.90;;;;;;4959545;29;20256;-91
2020/12/12 04:02:58;;;;;;;;;;;8.30;99.90;;;;;;4960176;29;19937;-93
2020/12/12 04:05:25;;;;;;;;;;;8.20;99.90;;;;;;4960034;29;19937;-91
2020/12/12 04:07:52;;;;;;;;;;;8.30;99.90;;;;;;4959765;29;20248;-90
2020/12/12 04:10:18;;;;;;;;;;;8.20;99.90;;;;;;4960129;29;19982;-91
2020/12/12 04:12:44;;;;;;;;;;;8.30;99.90;;;;;;4959982;29;19927;-92
2020/12/12 04:15:11;;;;;;;;;;;8.30;99.90;;;;;;4959727;29;19930;-93
2020/12/12 04:17:37;;;;;;;;;;;8.30;99.90;;;;;;4959856;29;19938;-91
2020/12/12 04:20:03;;;;;;;;;;;8.30;99.90;;;;;;4959662;29;19927;-90
2020/12/12 04:22:31;;;;;;;;;;;8.30;99.90;;;;;;4959270;29;19927;-90
2020/12/12 04:24:57;;;;;;;;;;;8.20;99.90;;;;;;4959673;29;19926;-90
2020/12/12 04:27:23;;;;;;;;;;;8.20;99.90;;;;;;4959878;29;19926;-92
2020/12/12 04:29:50;;;;;;;;;;;8.30;99.90;;;;;;4959303;29;19937;-91
2020/12/12 04:32:16;;;;;;;;;;;8.30;99.90;;;;;;4959341;29;19926;-92
2020/12/12 04:34:42;;;;;;;;;;;8.30;99.90;;;;;;4959726;29;19926;-92
2020/12/12 04:37:09;;;;;;;;;;;8.30;99.90;;;;;;4959576;29;19937;-90
2020/12/12 04:39:36;;;;;;;;;;;8.40;99.90;;;;;;4959486;29;20335;-90
2020/12/12 04:42:03;;;;;;;;;;;8.30;99.90;;;;;;4959211;29;19938;-90
2020/12/12 04:44:29;;;;;;;;;;;8.30;99.90;;;;;;4959305;29;19926;-90
2020/12/12 04:46:55;;;;;;;;;;;8.30;99.90;;;;;;4959121;28;19927;-90
2020/12/12 04:49:22;;;;;;;;;;;8.30;99.90;;;;;;4959238;29;19930;-90
2020/12/12 04:51:48;;;;;;;;;;;8.30;99.90;;;;;;4959150;29;20271;-91
2020/12/12 04:54:17;;;;;;;;;;;8.30;99.90;;;;;;4959270;29;19931;-91
2020/12/12 04:56:44;;;;;;;;;;;8.30;99.90;;;;;;4959205;29;19926;-91
2020/12/12 04:59:11;;;;;;;;;;;8.30;99.90;;;;;;4959154;29;19936;-91
2020/12/12 05:01:37;;;;;;;;;;;8.30;99.90;;;;;;4959320;29;19926;-91
2020/12/12 05:04:03;;;;;;;;;;;8.30;99.90;;;;;;4958538;29;20374;-91
2020/12/12 05:06:30;;;;;;;;;;;8.30;99.90;;;;;;4959020;29;19926;-92
2020/12/12 05:08:56;;;;;;;;;;;8.30;99.90;;;;;;4958904;29;19927;-91
2020/12/12 05:11:23;;;;;;;;;;;8.30;99.90;;;;;;4958636;29;19926;-92
2020/12/12 05:13:50;;;;;;;;;;;8.30;99.90;;;;;;4958485;29;19946;-92
2020/12/12 05:16:16;;;;;;;;;;;8.30;99.90;;;;;;4958817;29;19926;-91
2020/12/12 05:18:42;;;;;;;;;;;8.30;99.90;;;;;;4958961;29;19927;-91
2020/12/12 05:21:09;;;;;;;;;;;8.30;99.90;;;;;;4958894;29;19989;-92
2020/12/12 05:23:35;;;;;;;;;;;8.30;99.90;;;;;;4958339;29;19926;-92
2020/12/12 05:26:02;;;;;;;;;;;8.30;99.90;;;;;;4958374;29;19941;-92
2020/12/12 05:28:28;;;;;;;;;;;8.30;99.90;;;;;;4958333;29;19926;-93
2020/12/12 05:30:55;;;;;;;;;;;8.30;99.90;;;;;;4958273;29;20356;-91
2020/12/12 05:33:22;;;;;;;;;;;8.30;99.90;;;;;;4958258;29;19941;-91
2020/12/12 05:35:49;;;;;;;;;;;8.30;99.90;;;;;;4958209;29;20237;-92
2020/12/12 05:38:15;;;;;;;;;;;8.30;99.90;;;;;;4958407;29;19935;-91
2020/12/12 05:40:42;;;;;;;;;;;8.30;99.90;;;;;;4958148;29;19937;-93
2020/12/12 05:43:08;;;;;;;;;;;8.30;99.90;;;;;;4957976;29;20347;-92
2020/12/12 05:45:35;;;;;;;;;;;8.30;99.90;;;;;;4958283;29;19926;-92
2020/12/12 05:48:03;;;;;;;;;;;8.30;99.90;;;;;;4958452;29;20271;-92
2020/12/12 05:50:29;;;;;;;;;;;8.30;99.90;;;;;;4958304;29;19926;-92
2020/12/12 05:52:56;;;;;;;;;;;8.30;99.90;;;;;;4958013;29;19926;-93
2020/12/12 05:55:22;;;;;;;;;;;8.30;99.90;;;;;;4958143;29;19937;-91
2020/12/12 05:57:50;;;;;;;;;;;8.30;99.90;;;;;;4957089;28;20407;-92
2020/12/12 06:00:16;;;;;;;;;;;8.30;99.90;;;;;;4957735;29;19937;-92
2020/12/12 06:02:43;;;;;;;;;;;8.30;99.90;;;;;;4958000;29;19926;-93
2020/12/12 06:05:10;;;;;;;;;;;8.30;99.90;;;;;;4957537;29;19926;-92
2020/12/12 06:07:37;;;;;;;;;;;8.30;99.90;;;;;;4957668;29;20351;-93
2020/12/12 06:10:04;;;;;;;;;;;8.30;99.90;;;;;;4957678;29;20251;-92
2020/12/12 06:12:30;;;;;;;;;;;8.30;99.90;;;;;;4958034;29;20348;-91
2020/12/12 06:14:57;;;;;;;;;;;8.30;99.90;;;;;;4957624;29;19927;-91
2020/12/12 06:17:30;;;;;;;;;;;8.30;99.90;;;;;;4957680;29;20007;-92
2020/12/12 06:19:57;;;;;;;;;;;8.30;99.90;;;;;;4957872;29;19934;-91
2020/12/12 06:22:24;;;;;;;;;;;8.30;99.90;;;;;;4957388;29;20367;-92
2020/12/12 06:24:54;;;;;;;;;;;8.30;99.90;;;;;;4957630;29;19926;-93
2020/12/12 06:27:21;;;;;;;;;;;8.30;99.90;;;;;;4957567;29;19926;-92
2020/12/12 06:29:47;;;;;;;;;;;8.30;99.90;;;;;;4957441;29;19930;-92
2020/12/12 06:32:14;;;;;;;;;;;8.30;99.90;;;;;;4957381;29;19927;-92
2020/12/12 06:34:40;;;;;;;;;;;8.30;99.90;;;;;;4957542;29;20274;-92
2020/12/12 06:37:07;;;;;;;;;;;8.30;99.90;;;;;;4957474;29;20021;-92
2020/12/12 06:39:42;;;;;;;;;;;8.30;99.90;;;;;;4957333;29;19926;-93
2020/12/12 06:42:10;;;;;;;;;;;8.30;99.90;;;;;;4957404;29;19926;-94
2020/12/12 06:44:37;;;;;;;;;;;8.30;99.90;;;;;;4957385;29;20029;-92
2020/12/12 06:47:04;;;;;;;;;;;8.30;99.90;;;;;;4957673;29;19927;-91
2020/12/12 06:49:30;;;;;;;;;;;8.30;99.90;;;;;;4957632;29;19938;-91
2020/12/12 06:51:56;;;;;;;;;;;8.30;99.90;;;;;;4957321;29;19926;-91
2020/12/12 06:54:23;;;;;;;;;;;8.30;99.90;;;;;;4957255;29;19927;-92
2020/12/12 06:56:50;;;;;;;;;;;8.30;99.90;;;;;;4957480;29;19926;-92
2020/12/12 07:05:28;;;;;;;;;;;8.30;99.90;;;;;;4958264;28;20354;-91
2020/12/12 07:07:55;;;;;;;;;;;8.20;99.90;;;;;;4957276;28;19975;-90
2020/12/12 07:10:21;;;;;;;;;;;8.20;99.90;;;;;;4960749;29;19930;-91
2020/12/12 07:12:49;;;;;;;;;;;8.20;99.90;;;;;;4961148;29;19938;-92
2020/12/12 07:15:15;;;;;;;;;;;8.20;99.90;;;;;;4961002;29;19930;-92
2020/12/12 07:17:42;;;;;;;;;;;8.20;99.90;;;;;;4960761;29;19930;-92
2020/12/12 07:20:08;;;;;;;;;;;8.20;99.90;;;;;;4960794;29;19978;-92
2020/12/12 07:22:35;;;;;;;;;;;8.20;99.90;;;;;;4960674;29;19934;-92
2020/12/12 07:25:04;;;;;;;;;;;8.20;99.90;;;;;;4960920;29;19926;-91
2020/12/12 07:27:30;;;;;;;;;;;8.20;99.90;;;;;;4960687;29;19950;-92
2020/12/12 07:29:57;;;;;;;;;;;8.20;99.90;;;;;;4960594;29;19926;-93
2020/12/12 07:32:24;;;;;;;;;;;8.20;99.90;;;;;;4960522;28;20240;-92
2020/12/12 07:34:56;;;;;;;;;;;8.20;99.90;;;;;;4960912;29;19977;-92
2020/12/12 07:37:22;;;;;;;;;;;8.20;99.90;;;;;;4960797;29;19927;-92
2020/12/12 07:39:49;;;;;;;;;;;8.20;99.90;;;;;;4960352;29;19926;-92
2020/12/12 07:42:15;;;;;;;;;;;8.20;99.90;;;;;;4960237;29;19930;-92
2020/12/12 07:44:52;;;;;;;;;;;8.20;99.90;;;;;;4960351;29;19941;-92
2020/12/12 07:47:19;;;;;;;;;;;8.20;99.90;;;;;;4960267;29;20256;-91
2020/12/12 07:49:46;;;;;;;;;;;8.10;99.90;;;;;;4960323;29;19938;-92
2020/12/12 07:52:13;;;;;;;;;;;8.20;99.90;;;;;;4960089;29;20360;-92
2020/12/12 07:54:42;;;;;;;;;;;8.10;99.90;;;;;;4960354;29;19962;-91
2020/12/12 07:57:09;;;;;;;;;;;8.10;99.90;;;;;;4960024;29;20335;-92
2020/12/12 07:59:36;;;;;;;;;;;8.10;99.90;;;;;;4960072;29;19926;-92
2020/12/12 08:02:02;;;;;;;;;;;8.10;99.90;;;;;;4960202;29;19941;-92
2020/12/12 08:04:30;;;;;;;;;;;11.20;99.90;;;;;;4960131;29;19927;-92
2020/12/12 08:10:03;;;;;;;;;;;8.10;99.90;;;;;;5033773;23;19937;-90
2020/12/12 08:12:32;;;;;;;;;;;8.10;99.90;;;;;;4979248;28;19933;-90
2020/12/12 09:38:22;;;;;;;;;;;8.00;99.90;;;;;;5073296;23;20347;-88
2020/12/12 10:26:12;;;;;;;;;;;8.00;99.90;;;;;;4999258;23;19937;-91
2020/12/12 10:28:38;;;;;;;;;;;8.10;99.90;;;;;;4977043;28;19937;-89
2020/12/12 10:31:05;;;;;;;;;;;8.10;99.90;;;;;;4977086;28;19926;-90
2020/12/12 10:33:33;;;;;;;;;;;8.00;99.90;;;;;;4976934;28;19926;-90
2020/12/12 10:35:59;;;;;;;;;;;8.00;99.90;;;;;;4976952;28;19926;-90
2020/12/12 10:38:25;;;;;;;;;;;8.00;99.90;;;;;;4976724;28;19934;-91
2020/12/12 10:41:00;;;;;;;;;;;8.10;99.90;;;;;;4976936;28;19926;-90
2020/12/12 10:43:27;;;;;;;;;;;8.00;99.90;;;;;;4978713;28;19926;-89
2020/12/12 10:45:54;;;;;;;;;;;8.00;99.90;;;;;;4983506;28;20353;-91
2020/12/12 10:48:22;;;;;;;;;;;8.00;99.90;;;;;;4988873;28;20366;-89
2020/12/12 10:50:49;;;;;;;;;;;8.10;99.90;;;;;;4991044;28;19942;-92
2020/12/12 10:53:15;;;;;;;;;;;8.10;99.90;;;;;;4983207;28;19941;-91
2020/12/12 10:55:42;;;;;;;;;;;8.10;99.90;;;;;;4983351;28;19926;-90
2020/12/12 10:58:10;;;;;;;;;;;8.10;99.90;;;;;;4983382;28;20287;-90
2020/12/12 11:00:42;;;;;;;;;;;8.10;99.90;;;;;;4982990;28;19926;-90
2020/12/12 11:03:09;;;;;;;;;;;8.10;99.90;;;;;;4983068;28;19930;-90
2020/12/12 11:05:35;;;;;;;;;;;8.10;99.90;;;;;;4982774;28;19937;-91
2020/12/12 11:08:03;;;;;;;;;;;8.10;99.90;;;;;;4981638;28;19926;-91
2020/12/12 11:10:30;;;;;;;;;;;8.10;99.90;;;;;;4983175;28;19926;-91
2020/12/12 11:13:00;;;;;;;;;;;8.10;99.90;;;;;;4982953;28;20279;-90
2020/12/12 11:15:27;;;;;;;;;;;8.10;99.90;;;;;;4963811;28;19933;-91
2020/12/12 11:18:00;;;;;;;;;;;8.10;99.90;;;;;;4978354;28;20355;-91
2020/12/12 11:35:27;;;;;;;;;;;8.20;99.90;;;;;;5007539;23;19926;-89
2020/12/12 11:38:09;;;;;;;;;;;8.20;99.90;;;;;;4963794;28;19933;-90
2020/12/12 11:40:43;;;;;;;;;;;8.20;99.90;;;;;;4963168;29;20328;-90
2020/12/12 11:48:42;;;;;;;;;;;8.20;99.90;;;;;;4956597;28;19999;-92
2020/12/12 11:51:10;;;;;;;;;;;8.20;99.90;;;;;;4963277;28;19926;-90
2020/12/12 11:53:36;;;;;;;;;;;8.20;99.90;;;;;;4963617;29;19926;-90
2020/12/12 11:58:49;;;;;;;;;;;8.20;99.90;;;;;;4960720;29;19937;-89
2020/12/12 12:04:18;;;;;;;;;;;8.30;99.90;;;;;;4941563;29;19954;-88
2020/12/12 12:06:45;;;;;;;;;;;8.20;99.90;;;;;;4960660;29;20013;-89
2020/12/12 12:09:20;;;;;;;;;;;8.20;99.90;;;;;;4964009;28;20451;-89
2020/12/12 12:11:46;;;;;;;;;;;8.20;99.90;;;;;;4964893;28;19926;-92
2020/12/12 12:14:13;;;;;;;;;;;8.20;99.90;;;;;;4959925;29;19930;-90
2020/12/12 12:16:41;;;;;;;;;;;8.20;99.90;;;;;;4959230;28;19942;-89
2020/12/12 12:19:10;;;;;;;;;;;8.20;99.90;;;;;;4959113;29;20311;-88
2020/12/12 12:21:38;;;;;;;;;;;8.20;99.90;;;;;;4958319;29;19926;-89
2020/12/12 12:24:15;;;;;;;;;;;8.20;99.90;;;;;;4964671;28;19935;-90
2020/12/12 12:26:43;;;;;;;;;;;8.20;99.90;;;;;;4971824;28;20351;-88
2020/12/12 12:29:17;;;;;;;;;;;8.20;99.90;;;;;;4978024;28;20001;-93
2020/12/12 12:31:44;;;;;;;;;;;8.20;99.90;;;;;;4963206;29;19938;-91
2020/12/12 12:34:11;;;;;;;;;;;8.10;99.90;;;;;;4959593;29;19953;-88
2020/12/12 12:36:41;;;;;;;;;;;8.10;99.90;;;;;;4959255;29;19966;-88
2020/12/12 12:39:09;;;;;;;;;;;8.40;99.90;;;;;;4959358;28;19989;-91
2020/12/12 12:41:40;;;;;;;;;;;8.10;99.90;;;;;;4957882;29;20303;-91
2020/12/12 12:44:09;;;;;;;;;;;8.10;99.90;;;;;;4958446;29;19937;-91
2020/12/12 12:46:39;;;;;;;;;;;8.20;99.90;;;;;;4958788;29;19934;-91
2020/12/12 12:49:06;;;;;;;;;;;8.20;99.90;;;;;;4959850;29;19986;-90
2020/12/12 12:51:32;;;;;;;;;;;8.10;99.90;;;;;;4959049;29;20306;-91
2020/12/12 12:53:59;;;;;;;;;;;8.20;99.90;;;;;;4959419;28;19980;-92
2020/12/12 12:56:27;;;;;;;;;;;8.10;99.90;;;;;;4957914;29;19933;-90
2020/12/12 12:58:53;;;;;;;;;;;8.10;99.90;;;;;;4959586;29;19934;-91
2020/12/12 13:01:27;;;;;;;;;;;8.00;99.90;;;;;;4962634;28;19926;-91
2020/12/12 13:03:54;;;;;;;;;;;8.00;99.90;;;;;;4958956;29;19927;-91
2020/12/12 13:06:24;;;;;;;;;;;8.10;99.90;;;;;;4959109;28;20355;-92
2020/12/12 13:08:55;;;;;;;;;;;8.10;99.90;;;;;;4959014;29;20393;-92
2020/12/12 13:11:23;;;;;;;;;;;8.10;99.90;;;;;;4956240;29;19926;-91
2020/12/12 13:13:51;;;;;;;;;;;8.10;99.90;;;;;;4955897;28;20366;-91
2020/12/12 13:16:25;;;;;;;;;;;8.10;99.90;;;;;;4956049;29;20298;-93
2020/12/12 13:18:57;;;;;;;;;;;8.10;99.90;;;;;;4957890;28;19926;-92
2020/12/12 13:21:31;;;;;;;;;;;8.10;99.90;;;;;;4957881;29;20328;-91
2020/12/12 13:23:58;;;;;;;;;;;8.00;99.90;;;;;;4958583;29;19937;-92
2020/12/12 13:26:28;;;;;;;;;;;8.10;99.90;;;;;;4958324;28;19976;-92
2020/12/12 13:31:47;;;;;;;;;;;8.00;99.90;;;;;;4957015;29;19953;-90
2020/12/12 13:34:13;;;;;;;;;;;8.10;99.90;;;;;;4953624;29;20233;-91
2020/12/12 13:36:43;;;;;;;;;;;8.10;99.90;;;;;;4957580;29;20237;-93
2020/12/12 13:39:10;;;;;;;;;;;8.10;99.90;;;;;;4957643;29;19930;-92
2020/12/12 13:41:40;;;;;;;;;;;8.10;99.90;;;;;;4958188;29;19927;-94
2020/12/12 13:44:09;;;;;;;;;;;8.10;99.90;;;;;;4957027;28;19993;-93
2020/12/12 13:46:35;;;;;;;;;;;8.10;99.90;;;;;;4957999;29;19926;-93
2020/12/12 13:49:03;;;;;;;;;;;8.20;99.90;;;;;;4957740;29;19926;-93
2020/12/12 13:51:34;;;;;;;;;;;8.20;99.90;;;;;;4958125;28;20308;-93
2020/12/12 13:54:01;;;;;;;;;;;8.20;99.90;;;;;;4957797;28;19985;-93
2020/12/12 13:56:27;;;;;;;;;;;8.20;99.90;;;;;;4957399;28;19945;-93
2020/12/12 13:58:57;;;;;;;;;;;8.20;99.90;;;;;;4957700;29;19927;-93
2020/12/12 14:01:25;;;;;;;;;;;8.20;99.90;;;;;;4957942;28;20010;-93
2020/12/12 14:03:53;;;;;;;;;;;8.20;99.90;;;;;;4957674;29;19938;-93
2020/12/12 14:06:26;;;;;;;;;;;8.20;99.90;;;;;;4953073;29;20291;-93
2020/12/12 14:09:13;;;;;;;;;;;8.20;99.90;;;;;;4953482;29;20252;-93
2020/12/12 14:22:47;;;;;;;;;;;8.20;99.90;;;;;;4957806;28;19937;-92
2020/12/12 14:25:13;;;;;;;;;;;8.20;99.90;;;;;;4957420;28;19970;-92
2020/12/12 14:30:24;;;;;;;;;;;8.20;99.90;;;;;;4955304;28;19934;-92
2020/12/12 14:32:52;;;;;;;;;;;8.10;99.90;;;;;;4957846;29;20013;-92
2020/12/12 14:35:19;;;;;;;;;;;8.20;99.90;;;;;;4956979;28;19927;-92
2020/12/12 14:37:46;;;;;;;;;;;8.20;99.90;;;;;;4956626;29;19927;-92
2020/12/12 14:40:13;;;;;;;;;;;8.20;99.90;;;;;;4957393;29;19930;-92
2020/12/12 14:42:41;;;;;;;;;;;8.10;99.90;;;;;;4957598;28;19927;-92
2020/12/12 14:45:07;;;;;;;;;;;8.20;99.90;;;;;;4968486;28;19938;-93
2020/12/12 14:47:33;;;;;;;;;;;8.20;99.90;;;;;;4957249;29;19974;-92
2020/12/12 14:50:01;;;;;;;;;;;8.20;99.90;;;;;;4957041;29;19927;-92
2020/12/12 14:52:31;;;;;;;;;;;8.10;99.90;;;;;;4956894;29;19926;-93
2020/12/12 14:54:58;;;;;;;;;;;8.20;99.90;;;;;;4957117;29;19926;-92
2020/12/12 14:57:24;;;;;;;;;;;8.20;99.90;;;;;;4957461;29;20268;-93
2020/12/12 14:59:51;;;;;;;;;;;8.20;99.90;;;;;;4955133;28;20343;-92
2020/12/12 15:02:18;;;;;;;;;;;8.20;99.90;;;;;;4957307;29;19937;-94
2020/12/12 15:04:45;;;;;;;;;;;8.20;99.90;;;;;;4956810;29;19926;-93
2020/12/12 15:07:13;;;;;;;;;;;8.20;99.90;;;;;;4956748;28;20342;-92
2020/12/12 15:09:40;;;;;;;;;;;8.20;99.90;;;;;;4956731;29;19926;-92
2020/12/12 15:12:12;;;;;;;;;;;8.20;99.90;;;;;;4957390;29;19938;-94
2020/12/12 15:14:46;;;;;;;;;;;8.10;99.90;;;;;;4956504;28;19926;-93
2020/12/12 15:17:12;;;;;;;;;;;8.20;99.90;;;;;;4956987;28;20352;-92
2020/12/12 15:19:38;;;;;;;;;;;8.20;99.90;;;;;;4957000;29;19945;-93
2020/12/12 15:22:05;;;;;;;;;;;8.20;99.90;;;;;;4957120;29;20009;-92
2020/12/12 15:24:32;;;;;;;;;;;8.20;99.90;;;;;;4956570;29;19926;-92
2020/12/12 15:26:59;;;;;;;;;;;8.20;99.90;;;;;;4956897;29;19926;-93
2020/12/12 15:29:26;;;;;;;;;;;8.10;99.90;;;;;;4958783;28;19946;-92
2020/12/12 15:32:01;;;;;;;;;;;8.10;99.90;;;;;;4979190;28;19926;-93
2020/12/12 15:34:29;;;;;;;;;;;8.00;99.90;;;;;;4960030;28;19926;-92
2020/12/12 15:36:55;;;;;;;;;;;8.00;99.90;;;;;;4960209;29;19926;-91
2020/12/12 15:39:22;;;;;;;;;;;8.00;99.90;;;;;;4959954;29;20017;-91
2020/12/12 15:41:50;;;;;;;;;;;8.00;99.90;;;;;;4960397;29;19926;-92
2020/12/12 15:44:18;;;;;;;;;;;8.00;99.90;;;;;;4963728;28;20347;-92
2020/12/12 15:46:44;;;;;;;;;;;7.90;99.90;;;;;;4960311;29;19926;-92
2020/12/12 15:49:12;;;;;;;;;;;7.90;99.90;;;;;;4959715;29;19927;-92
2020/12/12 15:51:39;;;;;;;;;;;7.90;99.90;;;;;;4960019;29;19926;-92
2020/12/12 15:54:06;;;;;;;;;;;7.90;99.90;;;;;;4960090;29;20025;-92
2020/12/12 15:56:35;;;;;;;;;;;7.90;99.90;;;;;;4959989;29;20350;-93
2020/12/12 15:59:06;;;;;;;;;;;7.90;99.90;;;;;;4959743;28;20331;-93
2020/12/12 16:01:34;;;;;;;;;;;7.90;99.90;;;;;;4963469;28;19926;-92
2020/12/12 16:04:00;;;;;;;;;;;7.90;99.90;;;;;;4959954;29;20399;-92
2020/12/12 16:06:27;;;;;;;;;;;7.90;99.90;;;;;;4959571;28;19926;-93
2020/12/12 16:08:54;;;;;;;;;;;7.90;99.90;;;;;;4960003;29;19969;-92
2020/12/12 16:11:20;;;;;;;;;;;7.90;99.90;;;;;;4959597;29;19927;-92
2020/12/12 16:13:47;;;;;;;;;;;7.90;99.90;;;;;;4964543;28;19930;-92
2020/12/12 16:16:14;;;;;;;;;;;7.90;99.90;;;;;;4960041;28;19930;-91
2020/12/12 16:18:40;;;;;;;;;;;7.90;99.90;;;;;;4959706;29;20356;-92
2020/12/12 16:21:06;;;;;;;;;;;7.90;99.90;;;;;;4959176;29;19927;-92
2020/12/12 16:23:33;;;;;;;;;;;7.90;99.90;;;;;;4940564;29;19941;-93
2020/12/12 16:25:59;;;;;;;;;;;7.90;99.90;;;;;;4940469;29;19928;-92
2020/12/12 16:28:25;;;;;;;;;;;7.80;99.90;;;;;;4940651;29;19934;-93
2020/12/12 16:30:52;;;;;;;;;;;7.90;99.90;;;;;;4953998;29;19926;-92
2020/12/12 16:33:19;;;;;;;;;;;7.80;99.90;;;;;;4959434;28;19937;-91
2020/12/12 16:35:45;;;;;;;;;;;7.80;99.90;;;;;;4959651;29;19926;-92
2020/12/12 16:38:13;;;;;;;;;;;7.90;99.90;;;;;;4959540;29;20336;-92
2020/12/12 16:40:39;;;;;;;;;;;7.80;99.90;;;;;;4952233;29;19962;-92
2020/12/12 16:43:06;;;;;;;;;;;7.80;99.90;;;;;;4939962;29;19927;-92
2020/12/12 16:45:32;;;;;;;;;;;7.80;99.90;;;;;;4940539;29;19926;-92
2020/12/12 16:47:58;;;;;;;;;;;7.80;99.90;;;;;;4940141;29;20283;-92
2020/12/12 16:50:26;;;;;;;;;;;7.80;99.90;;;;;;4940197;29;19927;-93
2020/12/12 16:52:52;;;;;;;;;;;7.80;99.90;;;;;;4940115;29;20025;-91
2020/12/12 16:55:19;;;;;;;;;;;7.80;99.90;;;;;;4940024;29;19926;-93
2020/12/12 16:57:45;;;;;;;;;;;7.70;99.90;;;;;;4940293;29;19926;-93
2020/12/12 17:00:12;;;;;;;;;;;7.70;99.90;;;;;;4939940;29;19931;-92
2020/12/12 17:02:39;;;;;;;;;;;7.70;99.90;;;;;;4940216;29;19926;-94
2020/12/12 17:05:05;;;;;;;;;;;7.60;99.90;;;;;;4939711;29;19927;-92
2020/12/12 17:07:32;;;;;;;;;;;7.60;99.90;;;;;;4939848;29;19927;-92
2020/12/12 17:09:59;;;;;;;;;;;7.60;99.90;;;;;;4939596;29;19953;-92
2020/12/12 17:12:25;;;;;;;;;;;7.50;99.90;;;;;;4939927;29;19927;-91
2020/12/12 17:14:52;;;;;;;;;;;7.50;99.90;;;;;;4939708;29;19927;-92
2020/12/12 17:17:18;;;;;;;;;;;7.50;99.90;;;;;;4940226;29;19926;-92
2020/12/12 17:25:49;;;;;;;;;;;7.30;99.90;;;;;;4981396;28;19932;-92
2020/12/12 17:28:22;;;;;;;;;;;7.40;99.90;;;;;;4985767;28;19985;-92
2020/12/12 17:30:52;;;;;;;;;;;7.30;99.90;;;;;;4979554;28;19927;-91
